Time;durP1;ratioP1;P1;durP2;ratioP2;P2;SDS_P1;SDS_P2;PMS_P1;PMS_P2;Temp;Humidity;BMP_temperature;BMP_pressure;BME280_temperature;BME280_humidity;BME280_pressure;Samples;Min_cycle;Max_cycle;Signal;HPM_P1;HPM_P2
2021/12/03 00:01:33;;;;;;;4.13;3.40;;;;;;;19.05;54.93;96050.66;10467725;28;20551;-22
2021/12/03 00:06:36;;;;;;;6.93;3.25;;;;;;;19.14;54.78;96065.78;10472948;28;20314;-24
2021/12/03 00:11:36;;;;;;;6.68;3.22;;;;;;;19.15;54.68;96085.22;10471662;28;20032;-21
2021/12/03 00:16:37;;;;;;;7.23;3.60;;;;;;;19.09;55.05;96077.69;10468820;28;20202;-22
2021/12/03 00:21:38;;;;;;;7.33;3.67;;;;;;;19.10;54.92;96089.53;10475640;28;20067;-22
2021/12/03 00:26:39;;;;;;;6.22;3.50;;;;;;;19.09;54.94;96103.06;10473046;28;20938;-22
2021/12/03 00:31:40;;;;;;;5.63;3.65;;;;;;;19.11;54.92;96116.56;10467967;28;20033;-22
2021/12/03 00:36:40;;;;;;;5.90;3.92;;;;;;;19.13;55.08;96125.00;10474611;28;20037;-23
2021/12/03 00:41:46;;;;;;;6.30;3.47;;;;;;;19.12;55.04;96133.47;10477326;28;20422;-22
2021/12/03 00:46:47;;;;;;;4.00;2.72;;;;;;;19.16;55.09;96147.81;10473059;28;20302;-22
2021/12/03 00:51:47;;;;;;;4.65;3.17;;;;;;;19.15;54.93;96159.66;10472075;28;20113;-22
2021/12/03 00:56:48;;;;;;;4.93;3.13;;;;;;;19.14;55.01;96167.28;10471175;28;20128;-22
2021/12/03 01:01:48;;;;;;;4.43;3.70;;;;;;;19.16;55.03;96163.88;10469514;28;20033;-22
2021/12/03 01:06:49;;;;;;;3.95;3.38;;;;;;;19.14;55.24;96172.34;10473391;28;20790;-22
2021/12/03 01:11:49;;;;;;;4.80;3.17;;;;;;;19.16;55.21;96189.25;10469705;28;20035;-22
2021/12/03 01:16:50;;;;;;;6.25;2.92;;;;;;;19.16;54.87;96196.03;10467771;28;20692;-22
2021/12/03 01:21:50;;;;;;;5.38;3.05;;;;;;;19.13;54.97;96211.25;10473845;28;20397;-22
2021/12/03 01:26:53;;;;;;;4.37;3.67;;;;;;;19.15;54.98;96219.69;10472221;28;20052;-22
2021/12/03 01:31:56;;;;;;;3.88;2.92;;;;;;;19.14;55.16;96229.03;10468762;28;20662;-22
2021/12/03 01:36:57;;;;;;;5.68;3.05;;;;;;;19.12;54.75;96230.75;10472476;28;20040;-22
2021/12/03 01:41:57;;;;;;;4.37;2.93;;;;;;;19.15;55.11;96232.38;10474042;28;20110;-22
2021/12/03 01:46:58;;;;;;;3.72;2.50;;;;;;;19.17;54.86;96230.69;10465134;28;20029;-22
2021/12/03 01:51:58;;;;;;;4.87;2.87;;;;;;;19.18;54.63;96223.03;10475765;28;20033;-22
2021/12/03 01:56:59;;;;;;;6.45;2.85;;;;;;;19.14;54.76;96215.47;10469653;28;20299;-22
2021/12/03 02:02:00;;;;;;;5.82;3.13;;;;;;;19.17;54.68;96228.16;10472037;28;20055;-22
2021/12/03 02:07:00;;;;;;;4.40;2.95;;;;;;;19.20;54.30;96212.91;10476266;28;20037;-21
2021/12/03 02:12:01;;;;;;;4.10;2.78;;;;;;;19.20;54.51;96208.69;10462818;28;20040;-22
2021/12/03 02:17:01;;;;;;;8.93;3.05;;;;;;;19.17;54.67;96203.59;10461079;28;20043;-22
2021/12/03 02:22:02;;;;;;;6.78;2.88;;;;;;;19.16;54.62;96213.78;10471362;28;20119;-21
2021/12/03 02:27:03;;;;;;;3.60;2.17;;;;;;;19.14;54.58;96213.78;10470544;28;20058;-22
2021/12/03 02:32:03;;;;;;;4.75;2.92;;;;;;;19.14;54.41;96229.03;10466826;28;20085;-22
2021/12/03 02:37:05;;;;;;;5.93;2.60;;;;;;;19.21;54.49;96229.81;10469757;28;20025;-22
2021/12/03 02:42:05;;;;;;;4.32;2.60;;;;;;;19.19;54.61;96236.63;10465065;28;20090;-22
2021/12/03 02:47:06;;;;;;;3.13;2.10;;;;;;;19.19;54.45;96231.53;10467097;28;20390;-22
2021/12/03 02:52:08;;;;;;;6.75;4.13;;;;;;;19.16;54.26;96221.41;10469371;28;20048;-22
2021/12/03 02:57:09;;;;;;;3.88;2.70;;;;;;;19.21;54.15;96224.75;10464292;28;20060;-21
2021/12/03 03:02:10;;;;;;;4.85;2.88;;;;;;;19.19;54.60;96223.94;10466250;28;20112;-22
2021/12/03 03:07:10;;;;;;;2.85;2.30;;;;;;;19.20;54.29;96233.22;10466015;28;20037;-21
2021/12/03 03:12:12;;;;;;;3.97;2.55;;;;;;;19.17;54.18;96253.53;10465843;28;20025;-22
2021/12/03 03:17:13;;;;;;;4.38;2.78;;;;;;;19.15;54.61;96240.84;10461760;28;20468;-22
2021/12/03 03:22:15;;;;;;;4.30;2.83;;;;;;;19.18;54.64;96245.06;10469026;28;20772;-22
2021/12/03 03:27:16;;;;;;;5.75;2.90;;;;;;;19.19;54.35;96251.84;10462485;28;20047;-21
2021/12/03 03:32:17;;;;;;;5.20;2.35;;;;;;;19.21;54.60;96270.44;10468807;28;20457;-22
2021/12/03 03:37:18;;;;;;;4.40;3.30;;;;;;;19.20;54.88;96268.75;10458575;28;20040;-21
2021/12/03 03:42:19;;;;;;;6.45;2.78;;;;;;;19.13;54.64;96265.41;10466202;28;20041;-22
2021/12/03 03:47:19;;;;;;;3.53;2.50;;;;;;;19.14;54.64;96281.44;10465996;28;20035;-22
2021/12/03 03:52:20;;;;;;;4.37;2.60;;;;;;;19.18;55.01;96280.59;10466863;28;20027;-22
2021/12/03 03:57:21;;;;;;;3.65;2.45;;;;;;;19.20;54.93;96286.50;10462325;28;20116;-22
2021/12/03 04:02:22;;;;;;;4.57;2.58;;;;;;;19.16;54.73;96287.38;10463705;28;20035;-22
2021/12/03 04:07:22;;;;;;;4.40;2.80;;;;;;;19.17;55.12;96294.13;10470065;28;20036;-22
2021/12/03 04:12:24;;;;;;;4.03;2.60;;;;;;;19.19;54.94;96297.53;10455583;28;20341;-22
2021/12/03 04:17:24;;;;;;;3.00;2.30;;;;;;;19.21;54.86;96300.88;10459358;28;20029;-22
2021/12/03 04:22:25;;;;;;;3.97;2.17;;;;;;;19.19;55.25;96302.59;10467351;28;20047;-23
2021/12/03 04:27:25;;;;;;;4.40;2.55;;;;;;;19.20;55.06;96314.44;10466387;28;20329;-22
2021/12/03 04:32:26;;;;;;;5.10;2.55;;;;;;;19.20;54.94;96314.44;10462045;28;20039;-23
2021/12/03 04:37:26;;;;;;;3.60;1.80;;;;;;;19.14;55.13;96320.38;10467220;28;20025;-23
2021/12/03 04:42:27;;;;;;;5.43;2.35;;;;;;;19.15;55.39;96332.19;10468783;28;20036;-21
2021/12/03 04:47:27;;;;;;;3.90;1.80;;;;;;;19.09;55.37;96331.41;10464923;28;20021;-22
2021/12/03 04:52:28;;;;;;;2.87;2.43;;;;;;;19.15;55.58;96351.66;10473260;28;20773;-23
2021/12/03 04:57:28;;;;;;;3.33;2.00;;;;;;;19.16;55.47;96341.50;10465810;28;20535;-22
2021/12/03 05:02:28;;;;;;;3.60;2.47;;;;;;;19.13;55.15;96338.13;10471512;28;20036;-22
2021/12/03 05:07:42;;;;;;;2.33;1.87;;;;;;;19.08;55.22;96334.81;10471880;28;20275;-22
2021/12/03 05:12:42;;;;;;;4.07;1.80;;;;;;;19.18;55.05;96347.38;10462281;28;20286;-22
2021/12/03 05:17:42;;;;;;;7.90;2.63;;;;;;;19.20;54.89;96350.81;10464758;28;21271;-22
2021/12/03 05:22:43;;;;;;;8.35;2.33;;;;;;;19.23;54.78;96360.06;10470172;28;20291;-21
2021/12/03 05:27:43;;;;;;;4.05;2.13;;;;;;;19.21;54.31;96349.94;10457747;28;20052;-22
2021/12/03 05:32:44;;;;;;;3.38;2.22;;;;;;;19.31;54.13;96373.53;10470036;28;20032;-22
2021/12/03 05:37:44;;;;;;;7.18;2.47;;;;;;;19.30;53.89;96382.00;10470267;28;20414;-21
2021/12/03 05:42:46;;;;;;;7.63;2.83;;;;;;;19.27;52.86;96382.88;10474098;28;20060;-23
2021/12/03 05:47:47;;;;;;;2.90;1.95;;;;;;;19.22;50.52;96374.47;10465634;28;20039;-23
2021/12/03 05:52:49;;;;;;;2.80;1.80;;;;;;;19.11;49.97;96375.38;10474625;28;20040;-23
2021/12/03 05:57:49;;;;;;;4.32;1.90;;;;;;;19.11;48.74;96388.06;10469384;28;20520;-22
2021/12/03 06:02:50;;;;;;;3.72;1.55;;;;;;;19.18;46.68;96397.31;10466014;28;20033;-22
2021/12/03 06:07:51;;;;;;;4.65;2.30;;;;;;;19.30;47.07;96398.09;10469826;28;20066;-22
2021/12/03 06:12:51;;;;;;;2.67;1.42;;;;;;;19.43;48.57;96399.66;10461139;28;20070;-23
2021/12/03 06:17:52;;;;;;;5.95;1.67;;;;;;;19.40;49.14;96402.22;10461182;28;20025;-22
2021/12/03 06:22:52;;;;;;;4.85;1.85;;;;;;;19.52;49.59;96399.56;10460118;28;20489;-22
2021/12/03 06:27:56;;;;;;;6.32;1.60;;;;;;;19.62;49.81;96406.28;10473605;28;20404;-22
2021/12/03 06:32:56;;;;;;;3.53;2.05;;;;;;;19.62;50.00;96402.88;10461348;28;20588;-22
2021/12/03 06:37:57;;;;;;;3.45;1.55;;;;;;;19.67;50.22;96416.38;10449643;28;20107;-22
2021/12/03 06:42:57;;;;;;;1.93;1.50;;;;;;;19.66;50.52;96399.47;10472038;28;20076;-22
2021/12/03 06:47:58;;;;;;;3.90;1.90;;;;;;;19.69;50.54;96401.97;10457608;28;20341;-21
2021/12/03 06:53:05;;;;;;;3.90;1.83;;;;;;;19.79;50.74;96406.09;10471128;28;20275;-22
2021/12/03 06:58:05;;;;;;;3.13;1.52;;;;;;;19.82;50.83;96406.06;10462648;28;20450;-22
2021/12/03 07:03:06;;;;;;;2.78;1.45;;;;;;;19.79;50.85;96403.56;10468698;28;20045;-22
2021/12/03 07:08:06;;;;;;;4.57;1.50;;;;;;;19.70;51.01;96396.03;10471732;28;20119;-22
2021/12/03 07:13:07;;;;;;;2.10;1.50;;;;;;;19.66;51.21;96404.53;10457675;28;20708;-22
2021/12/03 07:18:07;;;;;;;3.72;1.70;;;;;;;19.65;51.09;96420.63;10459809;28;20068;-21
2021/12/03 07:23:08;;;;;;;4.93;1.75;;;;;;;19.71;51.31;96449.38;10469590;28;20120;-22
2021/12/03 07:28:09;;;;;;;4.82;1.83;;;;;;;19.63;51.49;96432.50;10473852;28;20066;-21
2021/12/03 07:33:13;;;;;;;8.80;2.25;;;;;;;17.78;40.25;96465.53;10463627;28;20025;-22
2021/12/03 07:38:17;;;;;;;8.00;1.95;;;;;;;18.64;45.31;96478.81;10468474;28;20048;-22
2021/12/03 07:43:17;;;;;;;5.10;1.52;;;;;;;19.10;46.90;96480.28;10465592;28;20048;-22
2021/12/03 07:48:21;;;;;;;5.15;2.05;;;;;;;19.30;48.07;96488.63;10452488;28;20550;-22
2021/12/03 07:53:22;;;;;;;2.30;1.20;;;;;;;19.39;48.70;96491.09;10465950;28;20036;-22
2021/12/03 07:58:22;;;;;;;3.78;1.50;;;;;;;19.43;48.82;96500.38;10475092;28;20036;-22
2021/12/03 08:03:23;;;;;;;1.93;1.33;;;;;;;19.46;49.51;96495.28;10465918;28;20117;-22
2021/12/03 08:08:26;;;;;;;1.67;1.10;;;;;;;19.49;49.33;96500.34;10462580;28;20283;-24
2021/12/03 08:13:26;;;;;;;1.77;1.58;;;;;;;19.56;49.27;96501.97;10469768;28;20040;-21
2021/12/03 08:18:27;;;;;;;2.63;1.20;;;;;;;19.58;49.33;96485.03;10458099;28;20409;-23
2021/12/03 08:23:27;;;;;;;2.33;1.13;;;;;;;19.59;49.78;96489.25;10470639;28;20287;-23
2021/12/03 08:28:28;;;;;;;2.33;1.10;;;;;;;19.46;50.02;96480.91;10481608;28;20059;-22
2021/12/03 08:33:28;;;;;;;2.38;1.35;;;;;;;19.59;50.16;96496.88;10469471;28;20550;-22
2021/12/03 08:38:29;;;;;;;3.67;1.23;;;;;;;19.57;49.91;96488.41;10473425;28;20039;-22
2021/12/03 08:43:30;;;;;;;2.65;1.20;;;;;;;19.62;49.88;96494.31;10470892;28;20063;-22
2021/12/03 08:48:37;;;;;;;5.82;1.80;;;;;;;19.21;48.23;96486.16;10465699;28;20715;-22
2021/12/03 08:58:57;;;;;;;1.80;1.30;;;;;;;19.54;49.96;96496.06;10460697;28;20060;-23
2021/12/03 09:03:57;;;;;;;3.50;1.88;;;;;;;19.50;50.46;96492.69;10465615;28;20509;-22
2021/12/03 09:08:57;;;;;;;1.65;1.10;;;;;;;19.59;49.86;96505.31;10474631;28;20067;-22
2021/12/03 09:14:01;;;;;;;4.43;1.47;;;;;;;19.61;50.52;96506.16;10465112;28;20037;-21
2021/12/03 09:19:05;;;;;;;2.08;1.13;;;;;;;19.62;50.58;96507.00;10468479;28;20442;-22
2021/12/03 09:24:13;;;;;;;22.45;6.55;;;;;;;19.66;50.42;96499.34;10472964;28;20493;-22
2021/12/03 09:29:22;;;;;;;10.32;3.53;;;;;;;19.68;50.37;96496.81;10475943;28;20049;-23
2021/12/03 09:34:24;;;;;;;8.32;2.17;;;;;;;19.64;50.64;96505.28;10457521;28;20025;-21
2021/12/03 09:39:24;;;;;;;7.40;2.08;;;;;;;19.67;50.47;96510.34;10471366;28;20035;-23
2021/12/03 09:44:26;;;;;;;7.97;1.90;;;;;;;19.58;50.69;96502.81;10473576;28;20037;-22
2021/12/03 09:49:33;;;;;;;6.45;2.22;;;;;;;19.22;47.99;96510.66;10462448;28;20045;-23
2021/12/03 09:54:44;;;;;;;3.33;1.70;;;;;;;19.45;48.93;96516.44;10475228;28;20024;-22
2021/12/03 10:00:28;;;;;;;4.25;1.92;;;;;;;19.54;50.42;96516.38;10459222;28;20037;-22
2021/12/03 10:16:00;;;;;;;4.05;1.63;;;;;;;19.72;50.95;96516.22;10464789;28;20029;-22
2021/12/03 10:21:16;;;;;;;5.18;1.70;;;;;;;19.76;51.40;96510.28;10471211;28;20036;-22
2021/12/03 10:42:40;;;;;;;2.67;1.35;;;;;;;19.67;51.90;96462.09;10457301;28;20416;-22
2021/12/03 10:48:00;;;;;;;7.70;1.30;;;;;;;19.83;51.47;96501.75;10460632;28;20028;-22
2021/12/03 11:20:08;;;;;;;11.13;2.90;;;;;;;19.73;51.05;96459.47;10464584;28;20459;-21
2021/12/03 11:41:31;;;;;;;6.45;2.40;;;;;;;19.71;51.02;96446.81;10468136;28;20120;-21
2021/12/03 12:24:28;;;;;;;8.70;3.97;;;;;;;19.96;51.57;96350.84;10476143;28;20040;-21
2021/12/03 12:30:19;;;;;;;9.20;2.90;;;;;;;18.37;42.02;96339.53;10464971;28;20454;-22
2021/12/03 12:40:35;;;;;;;6.10;2.80;;;;;;;19.28;46.74;96353.28;10475193;28;20039;-22
2021/12/03 13:23:13;;;;;;;6.82;3.85;;;;;;;19.84;51.03;96340.84;10473410;28;20400;-23
2021/12/03 13:28:36;;;;;;;7.57;3.73;;;;;;;19.81;51.83;96329.03;10463355;28;20057;-22
2021/12/03 14:00:07;;;;;;;7.18;3.47;;;;;;;19.82;51.58;96327.31;10469006;28;20032;-22
2021/12/03 14:22:37;;;;;;;5.85;3.00;;;;;;;19.79;51.66;96302.81;10470927;28;20140;-22
2021/12/03 14:43:02;;;;;;;4.55;3.25;;;;;;;19.92;51.10;96293.34;10463056;28;20322;-22
2021/12/03 14:48:32;;;;;;;6.15;3.50;;;;;;;19.91;51.03;96281.50;10457739;28;20045;-22
2021/12/03 14:54:01;;;;;;;4.32;3.25;;;;;;;19.94;51.29;96283.97;10457854;28;20025;-22
2021/12/03 14:59:09;;;;;;;10.13;4.93;;;;;;;19.99;52.45;96274.59;10465865;28;20036;-22
2021/12/03 15:09:41;;;;;;;5.18;4.45;;;;;;;19.95;51.45;96291.59;10441679;28;20044;-22
2021/12/03 15:30:38;;;;;;;10.75;5.60;;;;;;;19.56;52.78;96278.50;10472428;28;20051;-22
2021/12/03 15:56:58;;;;;;;11.52;5.63;;;;;;;19.13;54.08;96234.09;10467497;28;20602;-22
2021/12/03 16:17:38;;;;;;;8.68;4.88;;;;;;;18.98;45.59;96231.72;10451546;28;20658;-22
2021/12/03 16:54:09;;;;;;;7.53;4.32;;;;;;;19.33;53.52;96214.47;10477029;28;20607;-23
2021/12/03 16:59:11;;;;;;;10.68;5.65;;;;;;;19.31;53.57;96206.88;10471838;28;20039;-22
2021/12/03 17:09:44;;;;;;;5.82;4.55;;;;;;;19.23;53.36;96198.50;10471469;28;20406;-23
2021/12/03 17:14:59;;;;;;;11.50;4.53;;;;;;;19.18;53.59;96179.09;10471563;28;20043;-22
2021/12/03 17:30:56;;;;;;;13.23;4.85;;;;;;;19.38;52.84;96157.72;10464215;28;20111;-22
2021/12/03 17:47:05;;;;;;;11.93;5.70;;;;;;;19.24;51.02;96136.72;10467641;28;20094;-23
2021/12/03 17:52:08;;;;;;;10.95;4.13;;;;;;;19.31;52.73;96123.09;10463720;28;20041;-23
2021/12/03 17:57:12;;;;;;;7.15;3.78;;;;;;;19.31;52.93;96119.72;10456767;28;20061;-22
2021/12/03 18:02:22;;;;;;;10.82;4.95;;;;;;;19.07;53.14;96095.47;10456470;28;20120;-22
2021/12/03 18:07:45;;;;;;;8.30;4.65;;;;;;;19.23;52.94;96113.91;10456005;28;20750;-23
2021/12/03 18:54:55;;;;;;;7.30;4.53;;;;;;;19.37;52.34;96035.88;10466522;28;20028;-21
2021/12/03 19:00:03;;;;;;;5.57;4.15;;;;;;;19.35;52.43;96028.28;10464593;28;20061;-22
2021/12/03 19:05:20;;;;;;;7.00;3.97;;;;;;;19.35;52.47;96023.22;10454050;28;20044;-22
2021/12/03 19:10:24;;;;;;;;;;;;;;;19.34;52.47;96023.25;10468043;28;20520;-22
2021/12/03 19:15:25;;;;;;;5.47;4.07;;;;;;;19.26;52.22;96019.97;10453471;28;20339;-23
2021/12/03 19:20:28;;;;;;;4.00;3.50;;;;;;;19.34;52.04;96018.19;10465164;28;20120;-22
2021/12/03 19:25:29;;;;;;;6.05;3.70;;;;;;;19.32;51.95;96005.50;10468587;28;20752;-23
2021/12/03 19:30:29;;;;;;;6.97;4.38;;;;;;;19.30;52.15;95996.22;10469556;28;20051;-22
2021/12/03 19:35:30;;;;;;;6.28;3.53;;;;;;;19.30;52.15;95974.22;10468886;28;20098;-23
2021/12/03 19:40:34;;;;;;;7.85;4.78;;;;;;;19.21;52.69;95964.22;10467481;28;20033;-22
2021/12/03 19:45:43;;;;;;;9.80;5.07;;;;;;;19.26;52.95;95966.69;10464852;28;20547;-22
2021/12/03 19:50:45;;;;;;;8.50;5.45;;;;;;;19.28;52.94;95965.81;10457550;28;20284;-22
2021/12/03 19:55:46;;;;;;;10.05;5.63;;;;;;;19.21;52.82;95933.78;10464394;28;20041;-22
2021/12/03 20:00:50;;;;;;;10.57;4.68;;;;;;;19.30;52.96;95946.31;10450981;28;20409;-22
2021/12/03 20:05:50;;;;;;;10.63;4.93;;;;;;;19.31;52.81;95952.22;10449626;28;20567;-22
2021/12/03 20:10:52;;;;;;;8.83;4.27;;;;;;;19.23;52.79;95910.88;10462152;28;20036;-22
2021/12/03 20:21:05;;;;;;;7.63;3.90;;;;;;;19.11;52.75;95873.00;10465512;28;20106;-22
2021/12/03 20:31:07;;;;;;;7.25;4.10;;;;;;;19.36;52.77;95889.53;10463914;28;20116;-22
2021/12/03 20:36:22;;;;;;;5.15;3.97;;;;;;;19.34;52.71;95876.03;10464435;28;20159;-22
2021/12/03 20:41:31;;;;;;;5.03;3.70;;;;;;;19.35;52.53;95882.78;10459004;28;20090;-22
2021/12/03 20:46:44;;;;;;;6.80;3.97;;;;;;;19.33;52.74;95864.22;10465497;28;20033;-22
2021/12/03 20:52:07;;;;;;;7.43;4.93;;;;;;;19.31;52.90;95866.78;10455328;28;20139;-23
2021/12/03 20:57:20;;;;;;;7.00;4.13;;;;;;;19.31;52.82;95835.47;10464818;28;20114;-22
2021/12/03 21:13:08;;;;;;;6.90;4.47;;;;;;;19.34;52.79;95830.34;10459643;28;20029;-22
2021/12/03 21:23:09;;;;;;;6.75;3.65;;;;;;;19.17;52.99;95781.56;10471105;28;20036;-22
2021/12/03 21:38:48;;;;;;;8.93;4.40;;;;;;;19.30;52.47;95777.97;10471499;28;20037;-22
2021/12/03 21:43:50;;;;;;;7.45;4.35;;;;;;;19.28;52.81;95780.56;10464353;28;20048;-22
2021/12/03 21:48:52;;;;;;;4.20;3.40;;;;;;;19.22;52.74;95754.44;10457834;28;20069;-23
2021/12/03 21:53:53;;;;;;;6.13;4.28;;;;;;;19.28;52.72;95754.31;10471765;28;20618;-22
2021/12/03 21:58:55;;;;;;;6.00;4.10;;;;;;;19.29;52.82;95740.78;10461302;28;20124;-22
2021/12/03 22:03:55;;;;;;;7.78;4.05;;;;;;;19.32;52.76;95746.63;10460149;28;20520;-22
2021/12/03 22:08:57;;;;;;;8.93;4.60;;;;;;;19.31;52.91;95736.50;10463011;28;20128;-22
2021/12/03 22:13:57;;;;;;;8.88;4.75;;;;;;;19.26;52.72;95730.69;10462792;28;20028;-23
2021/12/03 22:18:58;;;;;;;5.38;3.97;;;;;;;19.29;52.70;95725.53;10461200;28;20119;-23
2021/12/03 22:23:58;;;;;;;11.03;4.87;;;;;;;19.28;53.03;95713.72;10467303;28;20051;-23
2021/12/03 22:28:59;;;;;;;6.75;4.18;;;;;;;19.15;53.21;95700.41;10461478;28;20062;-23
2021/12/03 22:33:59;;;;;;;5.80;3.80;;;;;;;19.26;53.07;95721.34;10460285;28;20037;-22
2021/12/03 22:39:00;;;;;;;5.37;4.17;;;;;;;19.27;53.13;95714.59;10465494;28;20766;-22
2021/12/03 22:44:01;;;;;;;8.65;4.13;;;;;;;19.28;52.90;95713.72;10462718;28;20306;-21
2021/12/03 22:54:12;;;;;;;5.45;3.72;;;;;;;19.18;53.17;95686.81;10460250;28;20566;-21
2021/12/03 22:59:14;;;;;;;10.38;4.38;;;;;;;18.95;53.18;95645.81;10456790;28;20144;-21
2021/12/03 23:04:14;;;;;;;9.23;4.75;;;;;;;19.24;53.23;95677.41;10470200;28;20327;-21
2021/12/03 23:09:16;;;;;;;6.53;3.83;;;;;;;19.01;53.15;95621.19;10461242;28;20032;-21
2021/12/03 23:14:16;;;;;;;9.75;5.00;;;;;;;19.18;53.26;95631.00;10454753;28;20028;-21
2021/12/03 23:19:17;;;;;;;9.98;3.55;;;;;;;19.28;53.16;95637.59;10466229;28;20401;-21
2021/12/03 23:24:18;;;;;;;7.60;3.63;;;;;;;19.24;53.15;95626.66;10464604;28;20239;-21
2021/12/03 23:29:19;;;;;;;8.23;4.15;;;;;;;19.19;53.01;95602.25;10459932;28;20448;-21
2021/12/03 23:34:21;;;;;;;6.70;4.35;;;;;;;19.26;53.38;95591.13;10460124;28;20405;-21
2021/12/03 23:39:22;;;;;;;5.93;4.13;;;;;;;19.23;53.18;95583.56;10461736;28;20087;-21
2021/12/03 23:44:22;;;;;;;7.57;4.33;;;;;;;19.26;53.06;95561.50;10465313;28;20492;-21
2021/12/03 23:49:23;;;;;;;6.03;3.60;;;;;;;19.24;53.33;95570.03;10462448;28;20339;-21
2021/12/03 23:54:26;;;;;;;7.97;3.35;;;;;;;19.22;53.29;95551.44;10469355;28;20025;-21
2021/12/03 23:59:28;;;;;;;8.73;4.05;;;;;;;19.25;53.19;95552.22;10467557;28;20710;-22
